sensor_id;sensor_type;location;lat;lon;timestamp;pressure;altitude;pressure_sealevel;temperature;humidity
31225;BME280;17847;31.524;74.366;2023-03-22T00:00:48;98602.97;;;18.59;75.55
31225;BME280;17847;31.524;74.366;2023-03-22T00:03:25;98605.72;;;18.80;74.61
31225;BME280;17847;31.524;74.366;2023-03-22T00:06:20;98597.13;;;19.00;73.60
31225;BME280;17847;31.524;74.366;2023-03-22T00:08:56;98597.78;;;19.07;73.40
31225;BME280;17847;31.524;74.366;2023-03-22T00:11:51;98596.19;;;19.11;73.11
31225;BME280;17847;31.524;74.366;2023-03-22T00:14:27;98605.69;;;19.19;72.63
31225;BME280;17847;31.524;74.366;2023-03-22T00:17:24;98613.06;;;19.28;72.43
31225;BME280;17847;31.524;74.366;2023-03-22T00:20:07;98616.13;;;19.37;72.13
31225;BME280;17847;31.524;74.366;2023-03-22T00:22:59;98616.41;;;19.41;71.91
31225;BME280;17847;31.524;74.366;2023-03-22T00:25:44;98608.94;;;19.43;71.72
31225;BME280;17847;31.524;74.366;2023-03-22T00:28:34;98614.63;;;19.46;71.38
31225;BME280;17847;31.524;74.366;2023-03-22T00:31:17;98617.31;;;19.46;71.41
31225;BME280;17847;31.524;74.366;2023-03-22T00:34:05;98611.50;;;19.54;71.01
31225;BME280;17847;31.524;74.366;2023-03-22T00:36:48;98618.16;;;19.52;71.00
31225;BME280;17847;31.524;74.366;2023-03-22T00:39:36;98624.34;;;19.52;71.15
31225;BME280;17847;31.524;74.366;2023-03-22T00:42:20;98627.31;;;19.51;71.18
31225;BME280;17847;31.524;74.366;2023-03-22T00:45:11;98624.88;;;19.49;71.23
31225;BME280;17847;31.524;74.366;2023-03-22T00:47:54;98638.00;;;19.46;71.42
31225;BME280;17847;31.524;74.366;2023-03-22T00:50:42;98632.63;;;19.46;71.05
31225;BME280;17847;31.524;74.366;2023-03-22T00:53:25;98636.13;;;19.46;71.23
31225;BME280;17847;31.524;74.366;2023-03-22T00:56:14;98638.97;;;19.40;71.42
31225;BME280;17847;31.524;74.366;2023-03-22T00:59:15;98641.41;;;19.41;71.23
31225;BME280;17847;31.524;74.366;2023-03-22T01:01:59;98646.28;;;19.44;71.38
31225;BME280;17847;31.524;74.366;2023-03-22T01:04:47;98653.53;;;19.44;71.30
31225;BME280;17847;31.524;74.366;2023-03-22T01:07:33;98648.16;;;19.44;71.07
31225;BME280;17847;31.524;74.366;2023-03-22T01:10:25;98646.06;;;19.46;70.94
31225;BME280;17847;31.524;74.366;2023-03-22T01:13:08;98654.59;;;19.43;71.21
31225;BME280;17847;31.524;74.366;2023-03-22T01:15:57;98654.59;;;19.43;71.21
31225;BME280;17847;31.524;74.366;2023-03-22T01:18:39;98654.84;;;19.41;71.30
31225;BME280;17847;31.524;74.366;2023-03-22T01:21:28;98656.47;;;19.42;71.22
31225;BME280;17847;31.524;74.366;2023-03-22T01:24:04;98663.47;;;19.43;71.10
31225;BME280;17847;31.524;74.366;2023-03-22T01:27:01;98662.19;;;19.46;71.23
31225;BME280;17847;31.524;74.366;2023-03-22T01:29:37;98663.00;;;19.46;71.36
31225;BME280;17847;31.524;74.366;2023-03-22T01:32:35;98666.22;;;19.48;71.07
31225;BME280;17847;31.524;74.366;2023-03-22T01:35:18;98675.97;;;19.54;71.06
31225;BME280;17847;31.524;74.366;2023-03-22T01:38:06;98673.41;;;19.64;70.55
31225;BME280;17847;31.524;74.366;2023-03-22T01:40:54;98679.91;;;19.68;70.45
31225;BME280;17847;31.524;74.366;2023-03-22T01:46:49;98696.09;;;19.73;70.18
31225;BME280;17847;31.524;74.366;2023-03-22T01:49:39;98701.00;;;19.82;70.37
31225;BME280;17847;31.524;74.366;2023-03-22T01:52:22;98713.75;;;19.91;69.97
31225;BME280;17847;31.524;74.366;2023-03-22T01:55:25;98719.44;;;19.95;69.94
31225;BME280;17847;31.524;74.366;2023-03-22T01:58:32;98723.31;;;20.04;69.50
31225;BME280;17847;31.524;74.366;2023-03-22T02:01:18;98720.16;;;20.12;69.37
31225;BME280;17847;31.524;74.366;2023-03-22T02:04:17;98734.19;;;20.19;69.18
31225;BME280;17847;31.524;74.366;2023-03-22T02:06:54;98735.25;;;20.18;68.53
31225;BME280;17847;31.524;74.366;2023-03-22T02:09:53;98737.09;;;20.34;68.80
31225;BME280;17847;31.524;74.366;2023-03-22T02:16:10;98745.38;;;20.59;67.86
31225;BME280;17847;31.524;74.366;2023-03-22T02:28:40;98745.88;;;21.25;66.58
31225;BME280;17847;31.524;74.366;2023-03-22T02:31:57;98746.50;;;21.32;66.09
31225;BME280;17847;31.524;74.366;2023-03-22T02:47:08;98747.63;;;21.04;65.92
31225;BME280;17847;31.524;74.366;2023-03-22T02:55:40;98754.00;;;21.87;64.62
31225;BME280;17847;31.524;74.366;2023-03-22T02:58:43;98764.13;;;22.12;64.23
31225;BME280;17847;31.524;74.366;2023-03-22T03:01:34;98772.50;;;22.21;63.80
31225;BME280;17847;31.524;74.366;2023-03-22T03:04:36;98771.41;;;22.12;64.11
31225;BME280;17847;31.524;74.366;2023-03-22T03:07:14;98771.50;;;21.75;63.85
31225;BME280;17847;31.524;74.366;2023-03-22T03:10:14;98781.31;;;21.96;64.40
31225;BME280;17847;31.524;74.366;2023-03-22T03:12:59;98780.53;;;22.06;64.00
31225;BME280;17847;31.524;74.366;2023-03-22T03:15:52;98790.03;;;22.23;63.83
31225;BME280;17847;31.524;74.366;2023-03-22T03:18:41;98784.97;;;22.47;63.57
31225;BME280;17847;31.524;74.366;2023-03-22T03:21:45;98787.16;;;22.65;62.46
31225;BME280;17847;31.524;74.366;2023-03-22T03:27:36;98798.50;;;22.52;61.36
31225;BME280;17847;31.524;74.366;2023-03-22T03:30:31;98798.13;;;22.23;62.05
31225;BME280;17847;31.524;74.366;2023-03-22T03:33:31;98799.50;;;22.26;61.06
31225;BME280;17847;31.524;74.366;2023-03-22T03:36:16;98795.78;;;22.62;62.43
31225;BME280;17847;31.524;74.366;2023-03-22T03:39:14;98793.88;;;22.48;60.20
31225;BME280;17847;31.524;74.366;2023-03-22T03:41:54;98783.94;;;22.94;62.36
31225;BME280;17847;31.524;74.366;2023-03-22T03:44:50;98787.69;;;22.67;60.28
31225;BME280;17847;31.524;74.366;2023-03-22T03:47:27;98789.34;;;22.89;61.33
31225;BME280;17847;31.524;74.366;2023-03-22T03:50:24;98800.16;;;22.99;58.52
31225;BME280;17847;31.524;74.366;2023-03-22T03:53:10;98801.50;;;23.06;60.58
31225;BME280;17847;31.524;74.366;2023-03-22T03:55:58;98803.13;;;23.27;58.56
31225;BME280;17847;31.524;74.366;2023-03-22T03:58:50;98806.34;;;23.19;58.34
31225;BME280;17847;31.524;74.366;2023-03-22T04:01:32;98810.97;;;23.19;57.92
31225;BME280;17847;31.524;74.366;2023-03-22T04:04:27;98812.03;;;23.48;59.35
31225;BME280;17847;31.524;74.366;2023-03-22T04:07:10;98817.47;;;23.18;58.08
31225;BME280;17847;31.524;74.366;2023-03-22T04:10:00;98819.31;;;23.63;58.74
31225;BME280;17847;31.524;74.366;2023-03-22T04:12:36;98818.19;;;23.74;57.19
31225;BME280;17847;31.524;74.366;2023-03-22T04:15:31;98811.03;;;24.08;58.63
31225;BME280;17847;31.524;74.366;2023-03-22T04:18:14;98821.03;;;24.23;57.84
31225;BME280;17847;31.524;74.366;2023-03-22T04:21:07;98822.41;;;24.21;54.87
31225;BME280;17847;31.524;74.366;2023-03-22T04:23:57;98826.63;;;24.37;55.87
31225;BME280;17847;31.524;74.366;2023-03-22T04:26:49;98822.81;;;24.43;57.69
31225;BME280;17847;31.524;74.366;2023-03-22T04:29:45;98832.09;;;24.76;57.20
31225;BME280;17847;31.524;74.366;2023-03-22T04:32:55;98837.16;;;24.43;52.54
31225;BME280;17847;31.524;74.366;2023-03-22T04:35:51;98837.97;;;24.83;54.00
31225;BME280;17847;31.524;74.366;2023-03-22T04:38:57;98833.19;;;25.14;54.88
31225;BME280;17847;31.524;74.366;2023-03-22T04:41:34;98830.63;;;24.93;51.05
31225;BME280;17847;31.524;74.366;2023-03-22T04:44:30;98836.06;;;24.93;52.60
31225;BME280;17847;31.524;74.366;2023-03-22T04:47:06;98842.59;;;24.87;51.46
31225;BME280;17847;31.524;74.366;2023-03-22T04:50:02;98831.09;;;25.00;52.54
31225;BME280;17847;31.524;74.366;2023-03-22T04:52:50;98831.56;;;25.13;51.87
31225;BME280;17847;31.524;74.366;2023-03-22T04:55:38;98839.47;;;25.38;50.41
31225;BME280;17847;31.524;74.366;2023-03-22T04:58:27;98848.69;;;25.08;49.80
31225;BME280;17847;31.524;74.366;2023-03-22T05:01:11;98845.03;;;24.89;51.94
31225;BME280;17847;31.524;74.366;2023-03-22T05:04:14;98846.66;;;25.53;51.44
31225;BME280;17847;31.524;74.366;2023-03-22T05:06:57;98844.81;;;25.48;50.45
31225;BME280;17847;31.524;74.366;2023-03-22T05:09:57;98851.78;;;25.59;49.01
31225;BME280;17847;31.524;74.366;2023-03-22T05:12:33;98846.44;;;25.49;49.02
31225;BME280;17847;31.524;74.366;2023-03-22T05:15:38;98848.38;;;25.72;49.78
31225;BME280;17847;31.524;74.366;2023-03-22T05:18:20;98841.31;;;26.24;49.78
31225;BME280;17847;31.524;74.366;2023-03-22T05:21:17;98842.34;;;26.04;49.41
31225;BME280;17847;31.524;74.366;2023-03-22T05:24:03;98842.78;;;26.11;48.51
31225;BME280;17847;31.524;74.366;2023-03-22T05:26:53;98848.03;;;26.03;51.20
31225;BME280;17847;31.524;74.366;2023-03-22T05:29:51;98840.69;;;25.84;47.34
31225;BME280;17847;31.524;74.366;2023-03-22T05:32:48;98840.81;;;26.17;49.76
31225;BME280;17847;31.524;74.366;2023-03-22T05:35:43;98836.03;;;26.51;48.84
31225;BME280;17847;31.524;74.366;2023-03-22T05:38:19;98839.63;;;26.47;46.81
31225;BME280;17847;31.524;74.366;2023-03-22T05:41:15;98838.50;;;26.29;47.48
31225;BME280;17847;31.524;74.366;2023-03-22T05:43:51;98845.69;;;25.96;47.77
31225;BME280;17847;31.524;74.366;2023-03-22T05:46:56;98850.84;;;26.64;50.06
31225;BME280;17847;31.524;74.366;2023-03-22T05:49:34;98848.47;;;26.76;48.58
31225;BME280;17847;31.524;74.366;2023-03-22T05:52:31;98843.63;;;26.92;47.64
31225;BME280;17847;31.524;74.366;2023-03-22T05:55:28;98844.59;;;26.21;47.99
31225;BME280;17847;31.524;74.366;2023-03-22T05:58:20;98843.66;;;26.30;46.59
31225;BME280;17847;31.524;74.366;2023-03-22T06:01:21;98846.72;;;26.66;47.62
31225;BME280;17847;31.524;74.366;2023-03-22T06:04:21;98848.25;;;26.72;48.78
31225;BME280;17847;31.524;74.366;2023-03-22T06:07:18;98850.41;;;26.94;46.05
31225;BME280;17847;31.524;74.366;2023-03-22T06:10:14;98853.47;;;27.06;48.02
31225;BME280;17847;31.524;74.366;2023-03-22T06:13:04;98853.97;;;26.52;46.76
31225;BME280;17847;31.524;74.366;2023-03-22T06:15:47;98864.06;;;27.08;48.57
31225;BME280;17847;31.524;74.366;2023-03-22T06:18:36;98870.53;;;26.93;47.85
31225;BME280;17847;31.524;74.366;2023-03-22T06:21:19;98868.97;;;26.68;46.70
31225;BME280;17847;31.524;74.366;2023-03-22T06:24:08;98863.69;;;26.96;47.16
31225;BME280;17847;31.524;74.366;2023-03-22T06:26:51;98856.03;;;26.79;48.17
31225;BME280;17847;31.524;74.366;2023-03-22T06:29:47;98863.75;;;27.42;48.76
31225;BME280;17847;31.524;74.366;2023-03-22T06:32:33;98865.88;;;26.75;50.32
31225;BME280;17847;31.524;74.366;2023-03-22T06:35:21;98867.00;;;27.11;48.81
31225;BME280;17847;31.524;74.366;2023-03-22T06:38:05;98869.97;;;27.29;49.30
31225;BME280;17847;31.524;74.366;2023-03-22T06:40:54;98859.88;;;26.59;48.20
31225;BME280;17847;31.524;74.366;2023-03-22T06:43:37;98853.06;;;26.99;47.49
31225;BME280;17847;31.524;74.366;2023-03-22T06:46:40;98857.63;;;26.24;47.75
31225;BME280;17847;31.524;74.366;2023-03-22T06:49:46;98838.75;;;25.85;48.83
31225;BME280;17847;31.524;74.366;2023-03-22T06:52:54;98832.09;;;26.62;50.21
31225;BME280;17847;31.524;74.366;2023-03-22T06:55:38;98823.88;;;26.67;48.54
31225;BME280;17847;31.524;74.366;2023-03-22T06:58:29;98820.91;;;26.03;48.86
31225;BME280;17847;31.524;74.366;2023-03-22T07:01:12;98817.69;;;26.43;50.08
31225;BME280;17847;31.524;74.366;2023-03-22T07:04:00;98809.41;;;26.53;46.79
31225;BME280;17847;31.524;74.366;2023-03-22T07:06:46;98807.44;;;26.77;47.65
31225;BME280;17847;31.524;74.366;2023-03-22T07:09:35;98805.47;;;26.78;46.61
31225;BME280;17847;31.524;74.366;2023-03-22T07:12:18;98787.94;;;26.52;48.38
31225;BME280;17847;31.524;74.366;2023-03-22T07:15:12;98795.34;;;26.83;48.08
31225;BME280;17847;31.524;74.366;2023-03-22T07:18:02;98793.94;;;27.05;49.34
31225;BME280;17847;31.524;74.366;2023-03-22T07:20:52;98774.53;;;27.11;45.03
31225;BME280;17847;31.524;74.366;2023-03-22T07:23:38;98772.38;;;26.95;47.45
31225;BME280;17847;31.524;74.366;2023-03-22T07:26:37;98764.16;;;26.81;45.60
31225;BME280;17847;31.524;74.366;2023-03-22T07:29:18;98763.16;;;27.23;46.45
31225;BME280;17847;31.524;74.366;2023-03-22T07:32:13;98763.97;;;26.40;46.60
31225;BME280;17847;31.524;74.366;2023-03-22T07:35:12;98752.28;;;26.40;49.56
31225;BME280;17847;31.524;74.366;2023-03-22T07:38:10;98749.09;;;26.51;46.78
31225;BME280;17847;31.524;74.366;2023-03-22T07:41:09;98748.81;;;26.15;47.43
31225;BME280;17847;31.524;74.366;2023-03-22T07:44:01;98736.06;;;26.34;49.61
31225;BME280;17847;31.524;74.366;2023-03-22T07:47:14;98738.69;;;26.40;48.76
31225;BME280;17847;31.524;74.366;2023-03-22T07:50:31;98730.47;;;26.63;47.94
31225;BME280;17847;31.524;74.366;2023-03-22T07:53:22;98728.50;;;26.82;48.24
31225;BME280;17847;31.524;74.366;2023-03-22T07:56:06;98725.97;;;26.72;48.53
31225;BME280;17847;31.524;74.366;2023-03-22T07:58:54;98726.75;;;26.41;49.27
31225;BME280;17847;31.524;74.366;2023-03-22T08:01:37;98705.41;;;26.66;48.89
31225;BME280;17847;31.524;74.366;2023-03-22T08:04:38;98704.56;;;26.52;45.79
31225;BME280;17847;31.524;74.366;2023-03-22T08:07:36;98701.31;;;26.82;47.76
31225;BME280;17847;31.524;74.366;2023-03-22T08:10:25;98692.22;;;26.60;47.80
31225;BME280;17847;31.524;74.366;2023-03-22T08:13:08;98695.06;;;26.68;46.13
31225;BME280;17847;31.524;74.366;2023-03-22T08:16:04;98694.16;;;26.41;48.06
31225;BME280;17847;31.524;74.366;2023-03-22T08:18:47;98693.81;;;26.28;46.51
31225;BME280;17847;31.524;74.366;2023-03-22T08:21:43;98682.63;;;26.30;48.86
31225;BME280;17847;31.524;74.366;2023-03-22T08:24:43;98683.34;;;25.98;47.35
31225;BME280;17847;31.524;74.366;2023-03-22T08:27:36;98677.63;;;26.18;48.33
31225;BME280;17847;31.524;74.366;2023-03-22T08:30:20;98670.84;;;26.16;46.21
31225;BME280;17847;31.524;74.366;2023-03-22T08:33:09;98657.88;;;26.50;48.50
31225;BME280;17847;31.524;74.366;2023-03-22T08:35:45;98652.78;;;26.62;50.82
31225;BME280;17847;31.524;74.366;2023-03-22T08:38:46;98638.97;;;26.59;50.06
31225;BME280;17847;31.524;74.366;2023-03-22T08:41:48;98631.09;;;26.25;46.19
31225;BME280;17847;31.524;74.366;2023-03-22T08:44:37;98626.25;;;26.41;49.78
31225;BME280;17847;31.524;74.366;2023-03-22T08:47:22;98616.94;;;26.60;48.73
31225;BME280;17847;31.524;74.366;2023-03-22T08:50:15;98607.31;;;26.68;50.89
31225;BME280;17847;31.524;74.366;2023-03-22T08:53:08;98610.72;;;26.60;47.95
31225;BME280;17847;31.524;74.366;2023-03-22T08:56:07;98595.97;;;26.47;47.50
31225;BME280;17847;31.524;74.366;2023-03-22T08:59:10;98586.47;;;26.31;45.87
31225;BME280;17847;31.524;74.366;2023-03-22T09:02:29;98577.06;;;26.42;48.00
31225;BME280;17847;31.524;74.366;2023-03-22T09:05:12;98579.88;;;26.37;48.18
31225;BME280;17847;31.524;74.366;2023-03-22T09:08:01;98571.72;;;26.37;46.58
31225;BME280;17847;31.524;74.366;2023-03-22T09:10:58;98567.00;;;26.43;49.06
31225;BME280;17847;31.524;74.366;2023-03-22T09:13:48;98556.50;;;26.22;44.85
31225;BME280;17847;31.524;74.366;2023-03-22T09:16:31;98562.84;;;26.31;47.86
31225;BME280;17847;31.524;74.366;2023-03-22T09:19:20;98558.16;;;26.37;48.25
31225;BME280;17847;31.524;74.366;2023-03-22T09:22:03;98542.50;;;26.29;49.96
31225;BME280;17847;31.524;74.366;2023-03-22T09:24:55;98546.66;;;26.26;47.96
31225;BME280;17847;31.524;74.366;2023-03-22T09:27:38;98530.44;;;26.21;50.35
31225;BME280;17847;31.524;74.366;2023-03-22T09:30:27;98524.66;;;26.09;51.41
31225;BME280;17847;31.524;74.366;2023-03-22T09:33:12;98521.69;;;25.92;51.99
31225;BME280;17847;31.524;74.366;2023-03-22T09:36:00;98515.53;;;25.86;47.01
31225;BME280;17847;31.524;74.366;2023-03-22T09:38:43;98508.81;;;25.84;48.50
31225;BME280;17847;31.524;74.366;2023-03-22T09:41:38;98507.47;;;25.81;48.93
31225;BME280;17847;31.524;74.366;2023-03-22T09:44:33;98495.34;;;25.92;48.47
31225;BME280;17847;31.524;74.366;2023-03-22T09:47:42;98493.88;;;26.00;50.41
31225;BME280;17847;31.524;74.366;2023-03-22T09:50:28;98487.22;;;25.92;51.20
31225;BME280;17847;31.524;74.366;2023-03-22T09:53:20;98486.81;;;25.99;47.35
31225;BME280;17847;31.524;74.366;2023-03-22T10:10:59;98450.41;;;25.86;47.87
31225;BME280;17847;31.524;74.366;2023-03-22T10:17:02;98444.16;;;25.86;47.98
31225;BME280;17847;31.524;74.366;2023-03-22T10:20:05;98437.25;;;25.80;46.18
31225;BME280;17847;31.524;74.366;2023-03-22T10:22:51;98437.53;;;25.78;47.96
31225;BME280;17847;31.524;74.366;2023-03-22T10:25:42;98430.19;;;25.79;50.39
31225;BME280;17847;31.524;74.366;2023-03-22T10:28:38;98419.03;;;25.80;49.40
31225;BME280;17847;31.524;74.366;2023-03-22T10:31:28;98417.84;;;25.86;50.09
31225;BME280;17847;31.524;74.366;2023-03-22T10:34:23;98410.31;;;25.83;48.60
31225;BME280;17847;31.524;74.366;2023-03-22T10:37:17;98411.59;;;25.86;47.74
31225;BME280;17847;31.524;74.366;2023-03-22T10:40:04;98416.91;;;25.77;48.90
31225;BME280;17847;31.524;74.366;2023-03-22T10:42:58;98416.59;;;25.65;50.06
31225;BME280;17847;31.524;74.366;2023-03-22T10:45:42;98407.94;;;25.63;50.18
31225;BME280;17847;31.524;74.366;2023-03-22T10:48:33;98403.63;;;25.62;48.44
31225;BME280;17847;31.524;74.366;2023-03-22T10:51:31;98406.53;;;25.66;50.87
31225;BME280;17847;31.524;74.366;2023-03-22T10:54:24;98406.09;;;25.59;49.29
31225;BME280;17847;31.524;74.366;2023-03-22T10:57:07;98404.56;;;25.53;50.37
31225;BME280;17847;31.524;74.366;2023-03-22T10:59:56;98401.22;;;25.42;48.65
31225;BME280;17847;31.524;74.366;2023-03-22T11:02:56;98406.44;;;25.38;50.08
31225;BME280;17847;31.524;74.366;2023-03-22T11:06:01;98401.38;;;25.32;51.14
31225;BME280;17847;31.524;74.366;2023-03-22T11:08:52;98385.09;;;25.32;51.67
31225;BME280;17847;31.524;74.366;2023-03-22T11:11:56;98391.84;;;25.34;50.14
31225;BME280;17847;31.524;74.366;2023-03-22T11:14:43;98388.94;;;25.31;51.01
31225;BME280;17847;31.524;74.366;2023-03-22T11:17:36;98384.31;;;25.31;50.77
31225;BME280;17847;31.524;74.366;2023-03-22T11:20:19;98381.22;;;25.19;49.83
31225;BME280;17847;31.524;74.366;2023-03-22T11:23:12;98380.75;;;25.17;52.17
31225;BME280;17847;31.524;74.366;2023-03-22T11:26:08;98382.44;;;25.13;51.45
31225;BME280;17847;31.524;74.366;2023-03-22T11:31:58;98389.03;;;25.07;51.79
31225;BME280;17847;31.524;74.366;2023-03-22T11:34:49;98388.00;;;25.03;52.08
31225;BME280;17847;31.524;74.366;2023-03-22T11:37:51;98384.19;;;25.04;52.56
31225;BME280;17847;31.524;74.366;2023-03-22T11:40:48;98394.50;;;25.02;53.93
31225;BME280;17847;31.524;74.366;2023-03-22T11:43:40;98388.59;;;25.00;56.48
31225;BME280;17847;31.524;74.366;2023-03-22T11:46:33;98389.75;;;24.94;53.89
31225;BME280;17847;31.524;74.366;2023-03-22T11:49:17;98384.41;;;24.89;53.49
31225;BME280;17847;31.524;74.366;2023-03-22T11:52:09;98386.06;;;24.85;51.80
31225;BME280;17847;31.524;74.366;2023-03-22T11:54:54;98381.25;;;24.82;51.57
31225;BME280;17847;31.524;74.366;2023-03-22T11:57:43;98398.00;;;24.84;52.63
31225;BME280;17847;31.524;74.366;2023-03-22T12:00:36;98389.66;;;24.80;53.18
31225;BME280;17847;31.524;74.366;2023-03-22T12:03:20;98402.44;;;24.75;51.46
31225;BME280;17847;31.524;74.366;2023-03-22T12:06:22;98396.22;;;24.74;51.66
31225;BME280;17847;31.524;74.366;2023-03-22T12:09:59;98401.63;;;24.74;51.56
31225;BME280;17847;31.524;74.366;2023-03-22T12:12:51;98397.34;;;24.73;51.58
31225;BME280;17847;31.524;74.366;2023-03-22T12:15:37;98402.44;;;24.75;52.87
31225;BME280;17847;31.524;74.366;2023-03-22T12:21:12;98400.69;;;24.65;53.65
31225;BME280;17847;31.524;74.366;2023-03-22T12:24:01;98397.75;;;24.61;53.77
31225;BME280;17847;31.524;74.366;2023-03-22T12:26:44;98404.56;;;24.59;53.95
31225;BME280;17847;31.524;74.366;2023-03-22T12:29:34;98406.25;;;24.55;54.39
31225;BME280;17847;31.524;74.366;2023-03-22T12:32:23;98417.34;;;24.53;55.88
31225;BME280;17847;31.524;74.366;2023-03-22T12:35:19;98420.72;;;24.45;57.15
31225;BME280;17847;31.524;74.366;2023-03-22T12:38:25;98419.47;;;24.38;58.13
31225;BME280;17847;31.524;74.366;2023-03-22T12:41:26;98416.59;;;24.29;57.27
31225;BME280;17847;31.524;74.366;2023-03-22T12:44:28;98414.25;;;24.17;56.21
31225;BME280;17847;31.524;74.366;2023-03-22T12:47:23;98414.81;;;24.14;57.96
31225;BME280;17847;31.524;74.366;2023-03-22T12:50:16;98424.66;;;24.05;56.75
31225;BME280;17847;31.524;74.366;2023-03-22T12:53:05;98425.72;;;24.04;55.90
31225;BME280;17847;31.524;74.366;2023-03-22T12:55:54;98426.91;;;23.98;58.90
31225;BME280;17847;31.524;74.366;2023-03-22T12:58:45;98426.94;;;23.93;58.62
31225;BME280;17847;31.524;74.366;2023-03-22T13:01:44;98423.69;;;23.91;59.70
31225;BME280;17847;31.524;74.366;2023-03-22T13:07:40;98421.91;;;23.82;59.25
31225;BME280;17847;31.524;74.366;2023-03-22T13:10:47;98424.19;;;23.69;58.84
31225;BME280;17847;31.524;74.366;2023-03-22T13:13:48;98427.75;;;23.65;59.37
31225;BME280;17847;31.524;74.366;2023-03-22T13:16:55;98436.97;;;23.59;58.30
31225;BME280;17847;31.524;74.366;2023-03-22T13:19:51;98439.44;;;23.55;61.33
31225;BME280;17847;31.524;74.366;2023-03-22T13:25:35;98445.72;;;23.46;58.58
31225;BME280;17847;31.524;74.366;2023-03-22T13:28:25;98454.63;;;23.51;59.52
31225;BME280;17847;31.524;74.366;2023-03-22T13:31:30;98451.41;;;23.49;61.05
31225;BME280;17847;31.524;74.366;2023-03-22T13:34:35;98448.97;;;23.48;61.65
31225;BME280;17847;31.524;74.366;2023-03-22T13:37:44;98450.88;;;23.47;61.03
31225;BME280;17847;31.524;74.366;2023-03-22T13:40:55;98444.38;;;23.43;60.01
31225;BME280;17847;31.524;74.366;2023-03-22T13:46:42;98452.25;;;23.40;62.19
31225;BME280;17847;31.524;74.366;2023-03-22T13:49:42;98465.22;;;23.38;62.11
31225;BME280;17847;31.524;74.366;2023-03-22T13:52:56;98462.84;;;23.31;62.33
31225;BME280;17847;31.524;74.366;2023-03-22T13:55:57;98467.47;;;23.25;62.23
31225;BME280;17847;31.524;74.366;2023-03-22T13:58:52;98462.06;;;23.25;62.94
31225;BME280;17847;31.524;74.366;2023-03-22T14:05:15;98486.63;;;23.29;63.67
31225;BME280;17847;31.524;74.366;2023-03-22T14:08:05;98489.06;;;23.31;63.44
31225;BME280;17847;31.524;74.366;2023-03-22T14:14:13;98488.53;;;23.28;63.25
31225;BME280;17847;31.524;74.366;2023-03-22T14:18:05;98493.41;;;23.26;63.24
31225;BME280;17847;31.524;74.366;2023-03-22T14:20:37;98499.91;;;23.25;63.69
31225;BME280;17847;31.524;74.366;2023-03-22T14:23:25;98498.56;;;23.23;62.90
31225;BME280;17847;31.524;74.366;2023-03-22T14:26:24;98498.28;;;23.24;63.44
31225;BME280;17847;31.524;74.366;2023-03-22T14:29:25;98508.84;;;23.21;63.80
31225;BME280;17847;31.524;74.366;2023-03-22T14:32:19;98501.00;;;23.19;63.63
31225;BME280;17847;31.524;74.366;2023-03-22T14:35:16;98509.69;;;23.16;64.67
31225;BME280;17847;31.524;74.366;2023-03-22T14:38:08;98512.13;;;23.13;65.25
31225;BME280;17847;31.524;74.366;2023-03-22T14:40:45;98515.66;;;23.08;65.77
31225;BME280;17847;31.524;74.366;2023-03-22T14:43:40;98518.94;;;23.05;65.99
31225;BME280;17847;31.524;74.366;2023-03-22T14:46:22;98516.78;;;22.97;66.43
31225;BME280;17847;31.524;74.366;2023-03-22T14:49:15;98515.19;;;22.96;66.33
31225;BME280;17847;31.524;74.366;2023-03-22T14:51:56;98519.53;;;22.92;66.66
31225;BME280;17847;31.524;74.366;2023-03-22T14:54:46;98523.84;;;22.88;66.97
31225;BME280;17847;31.524;74.366;2023-03-22T14:57:32;98522.28;;;22.82;66.92
31225;BME280;17847;31.524;74.366;2023-03-22T15:00:27;98529.00;;;22.79;67.17
31225;BME280;17847;31.524;74.366;2023-03-22T15:03:23;98525.81;;;22.77;67.05
31225;BME280;17847;31.524;74.366;2023-03-22T15:06:11;98528.25;;;22.74;67.27
31225;BME280;17847;31.524;74.366;2023-03-22T15:08:46;98525.53;;;22.74;67.33
31225;BME280;17847;31.524;74.366;2023-03-22T15:11:39;98537.16;;;22.74;67.44
31225;BME280;17847;31.524;74.366;2023-03-22T15:14:20;98535.81;;;22.72;67.01
31225;BME280;17847;31.524;74.366;2023-03-22T15:17:09;98530.94;;;22.69;67.40
31225;BME280;17847;31.524;74.366;2023-03-22T15:19:52;98530.69;;;22.65;67.58
31225;BME280;17847;31.524;74.366;2023-03-22T15:22:54;98539.31;;;22.62;67.56
31225;BME280;17847;31.524;74.366;2023-03-22T15:25:33;98533.13;;;22.57;67.99
31225;BME280;17847;31.524;74.366;2023-03-22T15:28:30;98531.22;;;22.57;67.95
31225;BME280;17847;31.524;74.366;2023-03-22T15:31:25;98527.19;;;22.55;68.10
31225;BME280;17847;31.524;74.366;2023-03-22T15:34:17;98537.44;;;22.53;68.63
31225;BME280;17847;31.524;74.366;2023-03-22T15:37:01;98535.84;;;22.52;68.78
31225;BME280;17847;31.524;74.366;2023-03-22T15:39:48;98541.75;;;22.49;68.79
31225;BME280;17847;31.524;74.366;2023-03-22T15:42:36;98550.97;;;22.48;68.96
31225;BME280;17847;31.524;74.366;2023-03-22T15:45:24;98562.03;;;22.46;68.87
31225;BME280;17847;31.524;74.366;2023-03-22T15:48:25;98560.97;;;22.42;68.84
31225;BME280;17847;31.524;74.366;2023-03-22T15:51:26;98561.50;;;22.39;69.08
31225;BME280;17847;31.524;74.366;2023-03-22T15:54:27;98564.47;;;22.37;68.92
31225;BME280;17847;31.524;74.366;2023-03-22T16:03:18;98563.41;;;22.33;69.76
31225;BME280;17847;31.524;74.366;2023-03-22T16:06:01;98555.56;;;22.32;69.84
31225;BME280;17847;31.524;74.366;2023-03-22T16:08:55;98554.22;;;22.29;69.74
31225;BME280;17847;31.524;74.366;2023-03-22T16:11:35;98553.94;;;22.31;70.18
31225;BME280;17847;31.524;74.366;2023-03-22T16:14:22;98544.50;;;22.33;70.03
31225;BME280;17847;31.524;74.366;2023-03-22T16:17:04;98542.63;;;22.34;70.10
31225;BME280;17847;31.524;74.366;2023-03-22T16:19:52;98544.50;;;22.28;70.02